Marquisville, Iowa
Current Conditions -  °F | °C
As of 12:15 PM on Friday 31 Oct 2014 (Local Time) from KIKV Reporting Station
Clear Clear  
Wind Chill: 29°   Ceiling: Unl
Heat Index: 37°   Visibility: 10mi
Dew Point: 19°   Wind: 14mph
Humidity: 48%   Direction: 340°NNW
Pressure: 30.51"   Gusts: 21mph
Location:  41.6547°N, 93.6196°W
Report Text: KIKV 311715Z AUTO 34012G18KT 10SM CLR 03/M07 A3051 RMK AO2
Loading
Personal Weather Stations






























Interactive Weather Map
Tropical Storm Tracking
New forecast layout! Learn more

10-Day Weather Forecast

Advertisements
Track Severe Weather on mobile